Time;durP1;ratioP1;P1;durP2;ratioP2;P2;SDS_P1;SDS_P2;PMS_P1;PMS_P2;Temp;Humidity;BMP_temperature;BMP_pressure;BME280_temperature;BME280_humidity;BME280_pressure;Samples;Min_cycle;Max_cycle;Signal;HPM_P1;HPM_P2
2023/09/14 00:00:08;;;;;;;57.07;2.57;;;;;;;;;;4953025;28;20456;-72
2023/09/14 00:02:35;;;;;;;56.90;2.80;;;;;;;;;;4950662;28;20554;-72
2023/09/14 00:05:02;;;;;;;57.70;3.60;;;;;;;;;;4941536;29;20551;-69
2023/09/14 00:07:30;;;;;;;57.27;3.23;;;;;;;;;;4940340;29;20484;-72
2023/09/14 00:09:57;;;;;;;56.80;2.70;;;;;;;;;;4949326;28;20453;-72
2023/09/14 00:12:24;;;;;;;57.20;3.37;;;;;;;;;;4933673;29;20529;-73
2023/09/14 00:14:51;;;;;;;56.73;2.60;;;;;;;;;;4933472;29;20919;-72
2023/09/14 00:17:18;;;;;;;56.80;2.70;;;;;;;;;;4933078;29;20466;-71
2023/09/14 00:19:45;;;;;;;56.67;2.47;;;;;;;;;;4933718;29;20688;-72
2023/09/14 00:22:14;;;;;;;56.67;2.70;;;;;;;;;;4941896;29;20532;-71
2023/09/14 00:24:41;;;;;;;56.60;2.67;;;;;;;;;;4935383;28;20973;-72
2023/09/14 00:27:08;;;;;;;56.80;2.63;;;;;;;;;;4933233;29;20473;-72
2023/09/14 00:29:35;;;;;;;56.67;2.40;;;;;;;;;;4933442;29;20456;-72
2023/09/14 00:32:02;;;;;;;56.53;2.33;;;;;;;;;;4933571;29;20497;-70
2023/09/14 00:34:30;;;;;;;56.77;2.80;;;;;;;;;;4933589;29;20442;-72
2023/09/14 00:36:57;;;;;;;56.93;3.50;;;;;;;;;;4944350;29;20969;-71
2023/09/14 00:39:25;;;;;;;56.97;3.30;;;;;;;;;;4952492;28;20456;-72
2023/09/14 00:41:52;;;;;;;58.10;3.20;;;;;;;;;;4952360;28;20456;-73
2023/09/14 00:44:19;;;;;;;56.90;2.70;;;;;;;;;;4952501;28;20489;-71
2023/09/14 00:46:46;;;;;;;58.43;3.80;;;;;;;;;;4952135;28;20575;-72
2023/09/14 00:49:13;;;;;;;56.77;2.80;;;;;;;;;;4952475;28;20457;-70
2023/09/14 00:51:41;;;;;;;56.97;2.90;;;;;;;;;;4952412;28;20453;-71
2023/09/14 00:54:08;;;;;;;56.40;2.67;;;;;;;;;;4952525;28;20548;-71
2023/09/14 00:56:37;;;;;;;56.87;2.90;;;;;;;;;;4951808;28;20582;-72
2023/09/14 00:59:05;;;;;;;57.00;2.87;;;;;;;;;;4952247;28;20459;-71
2023/09/14 01:01:32;;;;;;;57.20;3.00;;;;;;;;;;4954280;28;20448;-71
2023/09/14 01:04:00;;;;;;;57.80;3.90;;;;;;;;;;4955960;28;20492;-71
2023/09/14 01:06:27;;;;;;;57.27;3.17;;;;;;;;;;4955050;28;20482;-72
2023/09/14 01:08:54;;;;;;;57.40;3.40;;;;;;;;;;4955641;28;20453;-71
2023/09/14 01:11:21;;;;;;;56.73;2.83;;;;;;;;;;4956001;28;20453;-71
2023/09/14 01:13:56;;;;;;;57.10;2.70;;;;;;;;;;4955560;28;20455;-71
2023/09/14 01:16:27;;;;;;;57.80;3.67;;;;;;;;;;4948778;28;21021;-72
2023/09/14 01:18:57;;;;;;;57.80;3.90;;;;;;;;;;4954882;29;20459;-71
2023/09/14 01:21:31;;;;;;;56.90;3.20;;;;;;;;;;4955596;28;20456;-72
2023/09/14 01:24:03;;;;;;;57.10;3.00;;;;;;;;;;4955684;28;20499;-72
2023/09/14 01:26:33;;;;;;;58.50;4.80;;;;;;;;;;4955240;28;20465;-71
2023/09/14 01:29:04;;;;;;;58.70;3.97;;;;;;;;;;4955485;28;20449;-72
2023/09/14 01:31:31;;;;;;;57.03;2.67;;;;;;;;;;4955536;28;20460;-72
2023/09/14 01:33:58;;;;;;;57.10;3.60;;;;;;;;;;4955216;28;21016;-71
2023/09/14 01:36:30;;;;;;;57.60;2.93;;;;;;;;;;4955282;28;20472;-71
2023/09/14 01:38:57;;;;;;;57.60;3.97;;;;;;;;;;4955207;28;20449;-72
2023/09/14 01:41:24;;;;;;;57.63;3.13;;;;;;;;;;4955216;28;20459;-69
2023/09/14 01:43:54;;;;;;;57.57;2.90;;;;;;;;;;4955156;28;20495;-72
2023/09/14 01:46:22;;;;;;;57.20;2.83;;;;;;;;;;4955093;28;20476;-72
2023/09/14 01:48:49;;;;;;;59.40;3.67;;;;;;;;;;4955073;28;20488;-72
2023/09/14 01:51:16;;;;;;;57.37;3.37;;;;;;;;;;4955382;28;20453;-71
2023/09/14 01:53:43;;;;;;;57.13;2.80;;;;;;;;;;4954981;28;20453;-72
2023/09/14 01:56:10;;;;;;;57.33;3.10;;;;;;;;;;4954840;28;20475;-72
2023/09/14 01:58:37;;;;;;;57.20;2.57;;;;;;;;;;4954888;28;20449;-72
2023/09/14 02:01:06;;;;;;;56.87;2.77;;;;;;;;;;4954370;28;20472;-72
2023/09/14 02:03:34;;;;;;;56.73;2.60;;;;;;;;;;4947010;28;20489;-72
2023/09/14 02:06:02;;;;;;;56.87;2.70;;;;;;;;;;4946718;28;20457;-70
2023/09/14 02:08:30;;;;;;;56.97;3.00;;;;;;;;;;4947687;28;20549;-69
2023/09/14 02:10:57;;;;;;;57.00;2.70;;;;;;;;;;4938114;29;20523;-69
2023/09/14 02:13:24;;;;;;;57.07;2.70;;;;;;;;;;4946016;28;20445;-71
2023/09/14 02:15:51;;;;;;;57.60;3.23;;;;;;;;;;4946451;28;20452;-71
2023/09/14 02:18:19;;;;;;;57.40;3.60;;;;;;;;;;4941167;28;20452;-71
2023/09/14 02:20:46;;;;;;;57.10;3.33;;;;;;;;;;4935517;29;20452;-72
2023/09/14 02:23:15;;;;;;;58.20;3.87;;;;;;;;;;4935465;29;20497;-72
2023/09/14 02:25:43;;;;;;;57.20;3.13;;;;;;;;;;4935094;29;20533;-71
2023/09/14 02:28:10;;;;;;;57.63;3.27;;;;;;;;;;4934977;29;20477;-71
2023/09/14 02:30:40;;;;;;;56.90;2.50;;;;;;;;;;4935587;29;20441;-71
2023/09/14 02:33:07;;;;;;;57.20;2.90;;;;;;;;;;4935275;29;20446;-71
2023/09/14 02:35:36;;;;;;;57.43;3.03;;;;;;;;;;4935006;29;20549;-71
2023/09/14 02:38:03;;;;;;;58.13;3.47;;;;;;;;;;4938212;29;20988;-71
2023/09/14 02:40:30;;;;;;;56.77;3.20;;;;;;;;;;4954068;28;20511;-71
2023/09/14 02:42:58;;;;;;;56.80;2.73;;;;;;;;;;4954175;28;20620;-70
2023/09/14 02:45:25;;;;;;;56.80;2.47;;;;;;;;;;4954229;28;20445;-71
2023/09/14 02:47:52;;;;;;;56.77;2.70;;;;;;;;;;4953728;28;20477;-71
2023/09/14 02:50:19;;;;;;;56.80;2.90;;;;;;;;;;4954192;28;20451;-70
2023/09/14 02:52:47;;;;;;;56.87;2.67;;;;;;;;;;4953832;28;20461;-70
2023/09/14 02:55:15;;;;;;;57.40;3.30;;;;;;;;;;4953734;28;20449;-71
2023/09/14 02:57:42;;;;;;;58.37;3.17;;;;;;;;;;4953528;28;20570;-70
2023/09/14 03:00:12;;;;;;;56.77;2.60;;;;;;;;;;4954037;28;20449;-71
2023/09/14 03:02:40;;;;;;;56.83;2.70;;;;;;;;;;4953570;28;20950;-71
2023/09/14 03:05:09;;;;;;;57.00;3.00;;;;;;;;;;4953797;28;20488;-70
2023/09/14 03:07:36;;;;;;;57.37;2.97;;;;;;;;;;4953285;28;20504;-70
2023/09/14 03:10:05;;;;;;;56.70;2.80;;;;;;;;;;4953385;28;20441;-71
2023/09/14 03:12:32;;;;;;;56.67;2.77;;;;;;;;;;4953733;28;20449;-71
2023/09/14 03:14:59;;;;;;;57.30;2.80;;;;;;;;;;4953540;28;20454;-72
2023/09/14 03:17:26;;;;;;;56.77;2.53;;;;;;;;;;4953255;28;20473;-71
2023/09/14 03:19:53;;;;;;;56.70;2.87;;;;;;;;;;4953166;28;20461;-71
2023/09/14 03:22:20;;;;;;;56.80;2.60;;;;;;;;;;4953259;28;20896;-72
2023/09/14 03:24:47;;;;;;;56.80;3.13;;;;;;;;;;4953174;28;20492;-71
2023/09/14 03:27:16;;;;;;;56.73;2.83;;;;;;;;;;4953046;28;21003;-71
2023/09/14 03:29:43;;;;;;;56.47;2.37;;;;;;;;;;4953348;28;20459;-71
2023/09/14 03:32:10;;;;;;;56.90;3.27;;;;;;;;;;4953792;28;20450;-70
2023/09/14 03:34:37;;;;;;;56.67;3.00;;;;;;;;;;4953300;28;20447;-71
2023/09/14 03:37:04;;;;;;;57.40;3.07;;;;;;;;;;4952969;28;20468;-69
2023/09/14 03:39:31;;;;;;;56.70;2.70;;;;;;;;;;4953129;28;20461;-71
2023/09/14 03:41:59;;;;;;;56.70;2.40;;;;;;;;;;4953075;28;20448;-70
2023/09/14 03:44:27;;;;;;;56.87;3.10;;;;;;;;;;4953029;28;20493;-72
2023/09/14 03:46:54;;;;;;;56.27;2.50;;;;;;;;;;4952665;28;20972;-71
2023/09/14 03:49:21;;;;;;;56.40;2.50;;;;;;;;;;4953027;28;20449;-71
2023/09/14 03:51:48;;;;;;;56.60;2.37;;;;;;;;;;4943762;28;20457;-71
2023/09/14 03:54:15;;;;;;;56.57;2.63;;;;;;;;;;4934163;29;20445;-71
2023/09/14 03:56:43;;;;;;;57.10;2.80;;;;;;;;;;4933469;29;20835;-71
2023/09/14 03:59:10;;;;;;;56.50;2.53;;;;;;;;;;4933735;29;20457;-71
2023/09/14 04:01:38;;;;;;;56.77;2.87;;;;;;;;;;4940059;29;20457;-70
2023/09/14 04:04:06;;;;;;;58.10;3.87;;;;;;;;;;4949292;28;20493;-71
2023/09/14 04:06:33;;;;;;;56.60;2.30;;;;;;;;;;4941311;29;20500;-70
2023/09/14 04:09:00;;;;;;;56.47;2.87;;;;;;;;;;4951652;29;20456;-71
2023/09/14 04:11:27;;;;;;;56.30;2.10;;;;;;;;;;4944847;28;20452;-70
2023/09/14 04:13:56;;;;;;;56.57;2.33;;;;;;;;;;4943167;28;20444;-71
2023/09/14 04:16:23;;;;;;;56.87;3.00;;;;;;;;;;4946417;29;20828;-71
2023/09/14 04:18:51;;;;;;;56.60;2.43;;;;;;;;;;4944574;28;20446;-71
2023/09/14 04:21:18;;;;;;;57.07;3.10;;;;;;;;;;4945292;28;20948;-71
2023/09/14 04:23:46;;;;;;;56.60;2.60;;;;;;;;;;4944427;28;21038;-71
2023/09/14 04:26:13;;;;;;;56.50;2.77;;;;;;;;;;4952488;28;20484;-68
2023/09/14 04:28:40;;;;;;;56.17;2.17;;;;;;;;;;4952823;28;20456;-71
2023/09/14 04:31:09;;;;;;;56.43;2.50;;;;;;;;;;4952517;28;20559;-71
2023/09/14 04:33:36;;;;;;;56.50;2.33;;;;;;;;;;4953053;28;20818;-72
2023/09/14 04:36:06;;;;;;;56.37;2.50;;;;;;;;;;4953736;28;20461;-71
2023/09/14 04:38:33;;;;;;;56.40;2.40;;;;;;;;;;4968811;28;20433;-68
2023/09/14 04:41:03;;;;;;;57.27;3.07;;;;;;;;;;4976360;28;20476;-71
2023/09/14 04:43:32;;;;;;;56.50;2.30;;;;;;;;;;4977011;28;20916;-70
2023/09/14 04:45:59;;;;;;;56.37;2.57;;;;;;;;;;4977851;28;20460;-71
2023/09/14 04:48:26;;;;;;;57.30;3.33;;;;;;;;;;4978286;28;20453;-70
2023/09/14 04:50:56;;;;;;;57.27;3.40;;;;;;;;;;4977324;28;20457;-72
2023/09/14 04:53:24;;;;;;;56.10;2.40;;;;;;;;;;4977011;28;20532;-71
2023/09/14 04:55:51;;;;;;;58.07;3.40;;;;;;;;;;4977234;28;20508;-71
2023/09/14 04:58:18;;;;;;;56.80;2.70;;;;;;;;;;4975179;28;20459;-69
2023/09/14 05:00:48;;;;;;;57.07;2.80;;;;;;;;;;4975436;28;20589;-68
2023/09/14 05:03:15;;;;;;;56.47;2.70;;;;;;;;;;4976122;28;20516;-70
2023/09/14 05:05:42;;;;;;;56.57;2.60;;;;;;;;;;4978134;28;20626;-67
2023/09/14 05:08:09;;;;;;;56.90;2.70;;;;;;;;;;4979082;28;20488;-70
2023/09/14 05:10:38;;;;;;;56.80;2.77;;;;;;;;;;4979156;28;20508;-68
2023/09/14 05:13:05;;;;;;;57.50;3.43;;;;;;;;;;4979001;28;20449;-69
2023/09/14 05:15:32;;;;;;;56.50;2.63;;;;;;;;;;4979377;28;20453;-69
2023/09/14 05:18:00;;;;;;;56.47;2.87;;;;;;;;;;4973512;28;20473;-71
2023/09/14 05:20:27;;;;;;;56.60;2.70;;;;;;;;;;4960108;28;20453;-72
2023/09/14 05:22:54;;;;;;;56.60;2.90;;;;;;;;;;4959397;28;20458;-72
2023/09/14 05:25:21;;;;;;;56.77;2.80;;;;;;;;;;4954802;28;20485;-71
2023/09/14 05:27:49;;;;;;;56.77;2.73;;;;;;;;;;4938140;29;20478;-72
2023/09/14 05:30:21;;;;;;;57.00;3.00;;;;;;;;;;4937888;29;20446;-72
2023/09/14 05:32:49;;;;;;;56.67;3.10;;;;;;;;;;4959332;29;20457;-70
2023/09/14 05:35:16;;;;;;;56.70;3.00;;;;;;;;;;4966600;28;20456;-71
2023/09/14 05:37:43;;;;;;;57.70;3.53;;;;;;;;;;4969180;28;20540;-70
2023/09/14 05:40:12;;;;;;;56.80;2.97;;;;;;;;;;4968640;28;20447;-72
2023/09/14 05:42:39;;;;;;;57.27;3.63;;;;;;;;;;4961287;28;20560;-71
2023/09/14 05:45:09;;;;;;;56.80;2.73;;;;;;;;;;4955672;28;21021;-71
2023/09/14 05:47:37;;;;;;;56.97;2.80;;;;;;;;;;4954097;28;20468;-71
2023/09/14 05:50:04;;;;;;;56.60;2.40;;;;;;;;;;4955213;28;20832;-70
2023/09/14 05:52:32;;;;;;;58.00;3.77;;;;;;;;;;4958307;28;20445;-71
2023/09/14 05:54:59;;;;;;;56.70;2.70;;;;;;;;;;4955622;28;20461;-71
2023/09/14 05:57:26;;;;;;;57.00;2.80;;;;;;;;;;4954903;28;20479;-71
2023/09/14 05:59:53;;;;;;;56.70;2.50;;;;;;;;;;4955264;28;20836;-71
2023/09/14 06:02:22;;;;;;;56.27;2.40;;;;;;;;;;4954637;28;20461;-72
2023/09/14 06:04:49;;;;;;;56.60;2.60;;;;;;;;;;4954370;28;20496;-69
2023/09/14 06:07:16;;;;;;;57.20;2.83;;;;;;;;;;4939317;29;20477;-72
2023/09/14 06:09:43;;;;;;;56.70;2.77;;;;;;;;;;4947540;28;20457;-72
2023/09/14 06:12:10;;;;;;;56.77;2.60;;;;;;;;;;4943477;29;20450;-72
2023/09/14 06:14:37;;;;;;;56.80;3.27;;;;;;;;;;4943382;29;20462;-72
2023/09/14 06:17:04;;;;;;;56.90;2.70;;;;;;;;;;4953115;29;20483;-71
2023/09/14 06:19:33;;;;;;;56.30;2.30;;;;;;;;;;4940709;29;20450;-69
2023/09/14 06:22:00;;;;;;;56.63;2.40;;;;;;;;;;4943354;29;20532;-71
2023/09/14 06:24:27;;;;;;;56.57;2.60;;;;;;;;;;4943263;29;20604;-71
2023/09/14 06:26:56;;;;;;;56.63;3.10;;;;;;;;;;4942781;29;20487;-71
2023/09/14 06:29:23;;;;;;;56.80;2.97;;;;;;;;;;4943318;29;20454;-72
2023/09/14 06:31:51;;;;;;;56.20;2.30;;;;;;;;;;4935357;29;20453;-70
2023/09/14 06:34:18;;;;;;;56.73;2.83;;;;;;;;;;4935514;29;20454;-71
2023/09/14 06:36:46;;;;;;;56.60;2.13;;;;;;;;;;4935249;29;20482;-71
2023/09/14 06:39:14;;;;;;;56.90;2.37;;;;;;;;;;4954292;29;20457;-71
2023/09/14 06:41:41;;;;;;;56.30;2.33;;;;;;;;;;4948105;28;20473;-72
2023/09/14 06:44:08;;;;;;;56.63;2.67;;;;;;;;;;4935699;29;20449;-71
2023/09/14 06:46:35;;;;;;;56.33;2.60;;;;;;;;;;4938060;29;20476;-72
2023/09/14 06:49:02;;;;;;;56.03;1.97;;;;;;;;;;4944257;28;20467;-71
2023/09/14 06:51:29;;;;;;;56.10;2.00;;;;;;;;;;4938724;29;20492;-72
2023/09/14 06:53:58;;;;;;;56.80;2.87;;;;;;;;;;4953742;28;20790;-72
2023/09/14 06:56:25;;;;;;;56.37;2.50;;;;;;;;;;4939789;28;20470;-72
2023/09/14 06:58:52;;;;;;;56.67;2.30;;;;;;;;;;4933639;29;20450;-72
2023/09/14 07:01:20;;;;;;;57.03;3.10;;;;;;;;;;4950165;28;20461;-72
2023/09/14 07:03:47;;;;;;;56.60;2.30;;;;;;;;;;4934624;29;20457;-72
2023/09/14 07:06:14;;;;;;;57.20;2.40;;;;;;;;;;4953301;29;20960;-69
2023/09/14 07:08:41;;;;;;;56.37;2.40;;;;;;;;;;4953895;28;20800;-72
2023/09/14 07:11:10;;;;;;;56.73;2.70;;;;;;;;;;4953630;28;20444;-72
2023/09/14 07:13:37;;;;;;;56.40;2.37;;;;;;;;;;4953643;28;20524;-72
2023/09/14 07:16:04;;;;;;;56.80;2.50;;;;;;;;;;4953535;28;20445;-72
2023/09/14 07:18:32;;;;;;;56.40;2.50;;;;;;;;;;4953236;28;20459;-72
2023/09/14 07:21:01;;;;;;;56.27;2.30;;;;;;;;;;4953748;28;20449;-71
2023/09/14 07:23:28;;;;;;;56.43;2.60;;;;;;;;;;4953551;28;20508;-72
2023/09/14 07:25:55;;;;;;;56.70;2.77;;;;;;;;;;4952971;28;20488;-73
2023/09/14 07:28:24;;;;;;;56.60;2.67;;;;;;;;;;4953477;28;20652;-73
2023/09/14 07:30:52;;;;;;;56.47;2.40;;;;;;;;;;4953489;28;20462;-71
2023/09/14 07:33:20;;;;;;;56.63;2.40;;;;;;;;;;4953166;28;20929;-72
2023/09/14 07:35:47;;;;;;;56.70;2.67;;;;;;;;;;4952963;28;20929;-73
2023/09/14 07:38:14;;;;;;;56.37;2.27;;;;;;;;;;4952926;28;20547;-73
2023/09/14 07:40:41;;;;;;;56.80;2.40;;;;;;;;;;4953014;28;20448;-72
2023/09/14 07:43:09;;;;;;;56.50;2.43;;;;;;;;;;4953245;28;20448;-73
2023/09/14 07:45:38;;;;;;;57.73;3.13;;;;;;;;;;4953074;28;20503;-73
2023/09/14 07:48:06;;;;;;;56.50;2.53;;;;;;;;;;4952826;28;20920;-73
2023/09/14 07:50:36;;;;;;;56.27;2.27;;;;;;;;;;4953092;28;20460;-72
2023/09/14 07:53:03;;;;;;;56.80;2.20;;;;;;;;;;4953177;28;20457;-72
2023/09/14 07:55:30;;;;;;;56.67;2.50;;;;;;;;;;4953086;28;20445;-72
2023/09/14 07:57:58;;;;;;;56.50;2.57;;;;;;;;;;4952551;28;20997;-72
2023/09/14 08:00:25;;;;;;;56.30;2.40;;;;;;;;;;4952936;28;20937;-73
2023/09/14 08:02:53;;;;;;;56.60;2.57;;;;;;;;;;4952913;28;20453;-73
2023/09/14 08:05:20;;;;;;;56.10;2.13;;;;;;;;;;4933595;29;20497;-73
2023/09/14 08:07:48;;;;;;;57.67;3.43;;;;;;;;;;4933256;29;20932;-71
2023/09/14 08:10:15;;;;;;;55.87;1.93;;;;;;;;;;4933203;29;20450;-73
2023/09/14 08:12:42;;;;;;;57.00;3.03;;;;;;;;;;4933752;29;20454;-70
2023/09/14 08:15:09;;;;;;;56.90;2.80;;;;;;;;;;4933662;29;20445;-72
2023/09/14 08:17:36;;;;;;;57.07;2.27;;;;;;;;;;4933263;29;20488;-71
2023/09/14 08:20:05;;;;;;;57.07;2.50;;;;;;;;;;4933451;29;20460;-73
2023/09/14 08:22:32;;;;;;;56.40;2.23;;;;;;;;;;4933724;29;20457;-72
2023/09/14 08:25:00;;;;;;;56.67;2.67;;;;;;;;;;4933659;29;20489;-72
2023/09/14 08:27:28;;;;;;;57.17;2.50;;;;;;;;;;4933579;29;20831;-73
2023/09/14 08:29:56;;;;;;;57.07;2.87;;;;;;;;;;4933473;29;20934;-72
2023/09/14 08:32:23;;;;;;;56.40;2.43;;;;;;;;;;4933438;29;20450;-71
2023/09/14 08:34:50;;;;;;;56.40;2.20;;;;;;;;;;4933249;29;20452;-72
2023/09/14 08:37:18;;;;;;;56.60;2.47;;;;;;;;;;4932976;29;20480;-72
2023/09/14 08:39:45;;;;;;;56.60;2.57;;;;;;;;;;4933466;29;20473;-72
2023/09/14 08:42:13;;;;;;;56.77;2.40;;;;;;;;;;4933459;29;20458;-72
2023/09/14 08:44:40;;;;;;;56.60;2.33;;;;;;;;;;4933334;29;20950;-73
2023/09/14 08:47:08;;;;;;;56.80;2.60;;;;;;;;;;4932878;29;20481;-71
2023/09/14 08:49:35;;;;;;;56.47;2.17;;;;;;;;;;4933158;29;20530;-72
2023/09/14 08:52:03;;;;;;;56.27;2.10;;;;;;;;;;4933370;29;20838;-71
2023/09/14 08:54:32;;;;;;;56.30;2.53;;;;;;;;;;4933438;29;20451;-73
2023/09/14 08:56:59;;;;;;;56.47;2.70;;;;;;;;;;4933043;29;20473;-72
2023/09/14 08:59:27;;;;;;;57.13;2.80;;;;;;;;;;4933363;29;20450;-73
2023/09/14 09:01:55;;;;;;;56.53;2.50;;;;;;;;;;4933187;29;20456;-73
2023/09/14 09:04:22;;;;;;;55.97;2.30;;;;;;;;;;4933430;29;20469;-72
2023/09/14 09:06:49;;;;;;;56.60;2.63;;;;;;;;;;4932735;29;20493;-71
2023/09/14 09:09:17;;;;;;;57.07;2.47;;;;;;;;;;4933218;29;20456;-73
2023/09/14 09:11:47;;;;;;;56.50;2.93;;;;;;;;;;4933225;29;20459;-72
2023/09/14 09:14:15;;;;;;;56.57;2.50;;;;;;;;;;4943417;29;20533;-72
2023/09/14 09:16:42;;;;;;;56.60;2.47;;;;;;;;;;4951986;28;20499;-72
2023/09/14 09:19:10;;;;;;;56.57;2.07;;;;;;;;;;4952442;28;20452;-73
2023/09/14 09:21:37;;;;;;;56.70;2.77;;;;;;;;;;4952512;28;20520;-72
2023/09/14 09:24:05;;;;;;;56.00;1.97;;;;;;;;;;4955721;28;20448;-72
2023/09/14 09:26:35;;;;;;;56.57;2.27;;;;;;;;;;4955281;28;20912;-72
2023/09/14 09:29:13;;;;;;;56.80;2.80;;;;;;;;;;4955526;28;20550;-72
2023/09/14 09:31:42;;;;;;;56.87;3.23;;;;;;;;;;4955811;28;20474;-72
2023/09/14 09:34:09;;;;;;;56.60;2.60;;;;;;;;;;4955507;28;20534;-73
2023/09/14 09:36:37;;;;;;;56.50;2.30;;;;;;;;;;4955102;28;20468;-73
2023/09/14 09:39:05;;;;;;;56.80;2.50;;;;;;;;;;4955151;28;20472;-71
2023/09/14 09:41:33;;;;;;;56.50;2.40;;;;;;;;;;4955325;28;20832;-71
2023/09/14 09:44:00;;;;;;;57.10;3.47;;;;;;;;;;4955348;28;20456;-71
2023/09/14 09:46:28;;;;;;;56.80;2.40;;;;;;;;;;4954964;28;20493;-72
2023/09/14 09:48:55;;;;;;;56.80;2.40;;;;;;;;;;4955261;28;20460;-72
2023/09/14 09:51:24;;;;;;;56.50;2.10;;;;;;;;;;4955105;28;20459;-72
2023/09/14 09:54:04;;;;;;;55.83;2.07;;;;;;;;;;4955060;28;20464;-72
2023/09/14 09:56:34;;;;;;;56.40;2.20;;;;;;;;;;4954784;28;20469;-71
2023/09/14 09:59:03;;;;;;;56.27;2.20;;;;;;;;;;4955018;28;20475;-72
2023/09/14 10:01:31;;;;;;;56.40;2.10;;;;;;;;;;4954813;28;20441;-71
2023/09/14 10:03:59;;;;;;;56.70;2.43;;;;;;;;;;4954892;28;20463;-73
2023/09/14 10:06:26;;;;;;;57.80;2.93;;;;;;;;;;4954311;28;21072;-71
2023/09/14 10:08:54;;;;;;;56.60;2.70;;;;;;;;;;4954724;28;20464;-73
2023/09/14 10:11:24;;;;;;;58.73;2.57;;;;;;;;;;4954924;28;20449;-72
2023/09/14 10:13:51;;;;;;;57.50;3.37;;;;;;;;;;4954894;28;20476;-73
2023/09/14 10:16:21;;;;;;;57.70;2.70;;;;;;;;;;4954210;28;20469;-72
2023/09/14 10:18:51;;;;;;;56.97;2.53;;;;;;;;;;4954555;28;20959;-72
2023/09/14 10:21:19;;;;;;;56.77;2.47;;;;;;;;;;4954493;28;20464;-71
2023/09/14 10:23:46;;;;;;;57.47;3.27;;;;;;;;;;4954893;28;20459;-72
2023/09/14 10:26:13;;;;;;;55.83;1.77;;;;;;;;;;4954154;28;21064;-72
2023/09/14 10:28:40;;;;;;;56.97;2.73;;;;;;;;;;4947306;28;20854;-72
2023/09/14 10:31:08;;;;;;;56.30;2.17;;;;;;;;;;4937491;29;20454;-71
2023/09/14 10:33:35;;;;;;;56.90;2.90;;;;;;;;;;4953545;28;20463;-71
2023/09/14 10:36:05;;;;;;;56.27;2.70;;;;;;;;;;4946131;28;20455;-72
2023/09/14 10:38:34;;;;;;;56.60;2.33;;;;;;;;;;4946815;29;20465;-73
2023/09/14 10:41:01;;;;;;;56.80;2.67;;;;;;;;;;4938170;28;20803;-71
2023/09/14 10:43:29;;;;;;;56.57;2.30;;;;;;;;;;4935004;29;20450;-72
2023/09/14 10:46:06;;;;;;;56.70;2.50;;;;;;;;;;4934579;29;20585;-72
2023/09/14 10:48:34;;;;;;;56.93;2.67;;;;;;;;;;4935002;29;20458;-71
2023/09/14 10:51:04;;;;;;;56.57;2.37;;;;;;;;;;4951365;29;20472;-71
2023/09/14 10:53:32;;;;;;;56.37;2.77;;;;;;;;;;4954081;28;20453;-73
2023/09/14 10:55:59;;;;;;;56.37;2.30;;;;;;;;;;4953592;28;20509;-72
2023/09/14 10:58:42;;;;;;;56.27;2.67;;;;;;;;;;4953491;28;20456;-73
2023/09/14 11:01:12;;;;;;;57.17;2.67;;;;;;;;;;4953930;28;20475;-73
2023/09/14 11:03:54;;;;;;;56.80;2.47;;;;;;;;;;4954135;28;20449;-73
2023/09/14 11:06:36;;;;;;;57.93;3.47;;;;;;;;;;4953015;29;20518;-73
2023/09/14 11:09:05;;;;;;;56.40;2.70;;;;;;;;;;4953254;28;20459;-73
2023/09/14 11:11:39;;;;;;;56.47;2.37;;;;;;;;;;4954003;28;20488;-73
2023/09/14 11:14:08;;;;;;;56.30;2.10;;;;;;;;;;4953530;28;20444;-73
2023/09/14 11:16:42;;;;;;;56.30;2.17;;;;;;;;;;4953511;28;20469;-71
2023/09/14 11:19:10;;;;;;;56.37;2.23;;;;;;;;;;4953488;28;20479;-71
2023/09/14 11:21:44;;;;;;;56.37;2.10;;;;;;;;;;4953350;28;21028;-74
2023/09/14 11:24:13;;;;;;;56.83;2.40;;;;;;;;;;4953895;28;20822;-73
2023/09/14 11:26:47;;;;;;;55.93;2.07;;;;;;;;;;4953016;28;20516;-73
2023/09/14 11:29:14;;;;;;;55.87;1.83;;;;;;;;;;4953167;28;20503;-74
2023/09/14 11:31:42;;;;;;;55.77;1.80;;;;;;;;;;4953096;28;20934;-73
2023/09/14 11:34:12;;;;;;;55.97;2.03;;;;;;;;;;4953148;28;20461;-74
2023/09/14 11:36:40;;;;;;;57.27;2.03;;;;;;;;;;4953026;28;20833;-72
2023/09/14 11:39:11;;;;;;;55.57;1.87;;;;;;;;;;4952112;28;20464;-72
2023/09/14 11:41:40;;;;;;;55.27;1.90;;;;;;;;;;4940409;28;20472;-71
2023/09/14 11:44:07;;;;;;;56.10;2.20;;;;;;;;;;4933393;29;20807;-72
2023/09/14 11:46:35;;;;;;;55.13;1.60;;;;;;;;;;4932168;29;20493;-72
2023/09/14 11:49:04;;;;;;;55.83;2.00;;;;;;;;;;4933801;29;20898;-72
2023/09/14 11:51:31;;;;;;;54.97;1.67;;;;;;;;;;4934244;29;20461;-73
2023/09/14 11:53:59;;;;;;;55.30;2.13;;;;;;;;;;4933976;29;20446;-74
2023/09/14 11:56:27;;;;;;;55.30;2.20;;;;;;;;;;4933401;29;20886;-73
2023/09/14 11:58:58;;;;;;;54.97;2.03;;;;;;;;;;4933584;29;20450;-73
2023/09/14 12:01:25;;;;;;;55.10;1.90;;;;;;;;;;4952385;29;20457;-73
2023/09/14 12:03:53;;;;;;;55.87;2.50;;;;;;;;;;4952864;28;20464;-73
2023/09/14 12:06:20;;;;;;;55.47;2.00;;;;;;;;;;4952397;28;20496;-72
2023/09/14 12:08:48;;;;;;;55.80;2.10;;;;;;;;;;4952969;28;20457;-72
2023/09/14 12:11:15;;;;;;;54.90;1.80;;;;;;;;;;4953136;28;20507;-72
2023/09/14 12:13:50;;;;;;;55.90;2.57;;;;;;;;;;4952633;28;20547;-73
2023/09/14 12:16:22;;;;;;;57.00;1.90;;;;;;;;;;4952484;28;20472;-73
2023/09/14 12:18:50;;;;;;;55.20;2.10;;;;;;;;;;4952757;28;20508;-72
2023/09/14 12:21:18;;;;;;;54.80;1.70;;;;;;;;;;4952522;28;20457;-73
2023/09/14 12:23:47;;;;;;;55.00;2.10;;;;;;;;;;4952562;28;20456;-73
2023/09/14 12:26:15;;;;;;;54.87;1.63;;;;;;;;;;4952124;28;20496;-72
2023/09/14 12:28:42;;;;;;;54.70;2.00;;;;;;;;;;4952187;28;20468;-73
2023/09/14 12:31:10;;;;;;;54.77;1.73;;;;;;;;;;4952138;28;20837;-73
2023/09/14 12:33:39;;;;;;;55.00;1.90;;;;;;;;;;4933305;29;21006;-74
2023/09/14 12:36:07;;;;;;;54.70;2.00;;;;;;;;;;4933168;29;20452;-73
2023/09/14 12:38:34;;;;;;;54.97;1.83;;;;;;;;;;4936700;29;20507;-73
2023/09/14 12:41:02;;;;;;;54.83;1.90;;;;;;;;;;4952747;28;20461;-73
2023/09/14 12:43:29;;;;;;;55.20;2.10;;;;;;;;;;4952507;28;20487;-71
2023/09/14 12:45:58;;;;;;;54.70;1.80;;;;;;;;;;4952075;28;20866;-72
2023/09/14 12:48:27;;;;;;;54.60;1.70;;;;;;;;;;4952193;28;20445;-72
2023/09/14 12:50:56;;;;;;;54.67;1.77;;;;;;;;;;4952285;28;20914;-72
2023/09/14 12:53:25;;;;;;;54.37;1.70;;;;;;;;;;4952590;28;20508;-72
2023/09/14 12:55:53;;;;;;;54.70;1.60;;;;;;;;;;4952111;28;20492;-72
2023/09/14 12:58:21;;;;;;;54.90;2.00;;;;;;;;;;4955314;28;20503;-72
2023/09/14 13:00:48;;;;;;;54.30;1.83;;;;;;;;;;4956090;28;20455;-72
2023/09/14 13:03:18;;;;;;;54.67;1.60;;;;;;;;;;4956048;28;20464;-73
2023/09/14 13:05:46;;;;;;;54.30;1.60;;;;;;;;;;4955633;28;20464;-72
2023/09/14 13:08:14;;;;;;;54.70;1.80;;;;;;;;;;4955676;28;20492;-73
2023/09/14 13:10:43;;;;;;;54.73;2.00;;;;;;;;;;4955801;28;20543;-72
2023/09/14 13:13:11;;;;;;;54.57;1.80;;;;;;;;;;4955723;28;20523;-72
2023/09/14 13:15:39;;;;;;;54.77;2.20;;;;;;;;;;4955572;28;20452;-73
2023/09/14 13:18:09;;;;;;;54.50;1.60;;;;;;;;;;4955360;28;20520;-73
2023/09/14 13:20:37;;;;;;;54.70;1.90;;;;;;;;;;4955488;28;20543;-73
2023/09/14 13:23:05;;;;;;;54.80;1.90;;;;;;;;;;4955588;28;20463;-72
2023/09/14 13:25:33;;;;;;;54.60;1.80;;;;;;;;;;4955309;28;20810;-73
2023/09/14 13:28:01;;;;;;;54.57;1.90;;;;;;;;;;4955196;28;21024;-72
2023/09/14 13:30:28;;;;;;;54.67;1.83;;;;;;;;;;4955403;28;20456;-73
2023/09/14 13:32:56;;;;;;;54.80;2.00;;;;;;;;;;4955424;28;20459;-73
2023/09/14 13:35:24;;;;;;;54.23;1.87;;;;;;;;;;4955361;28;20457;-73
2023/09/14 13:37:52;;;;;;;55.00;1.90;;;;;;;;;;4955118;28;20622;-73
2023/09/14 13:40:20;;;;;;;54.70;1.97;;;;;;;;;;4955396;28;20477;-74
2023/09/14 13:42:50;;;;;;;54.70;1.80;;;;;;;;;;4955208;28;20480;-73
2023/09/14 13:45:17;;;;;;;54.60;1.80;;;;;;;;;;4954967;28;20455;-71
2023/09/14 13:47:46;;;;;;;55.03;1.80;;;;;;;;;;4954877;28;20492;-72
2023/09/14 13:50:14;;;;;;;55.07;2.07;;;;;;;;;;4955198;28;20830;-73
2023/09/14 13:52:41;;;;;;;54.57;2.00;;;;;;;;;;4955273;28;20456;-73
2023/09/14 13:55:08;;;;;;;54.70;2.00;;;;;;;;;;4955041;28;20452;-73
2023/09/14 13:57:36;;;;;;;54.57;1.90;;;;;;;;;;4954589;28;20461;-74
2023/09/14 14:00:07;;;;;;;54.57;1.80;;;;;;;;;;4954937;28;20456;-73
2023/09/14 14:02:34;;;;;;;54.43;1.80;;;;;;;;;;4955090;28;20773;-74
2023/09/14 14:05:02;;;;;;;54.50;1.80;;;;;;;;;;4954820;28;20992;-74
2023/09/14 14:07:30;;;;;;;54.57;1.80;;;;;;;;;;4954337;28;21012;-73
2023/09/14 14:09:57;;;;;;;54.67;1.73;;;;;;;;;;4954035;28;20460;-73
2023/09/14 14:12:24;;;;;;;55.10;2.00;;;;;;;;;;4955017;28;20830;-73
2023/09/14 14:14:54;;;;;;;55.00;1.80;;;;;;;;;;4954890;28;20475;-72
2023/09/14 14:17:22;;;;;;;54.70;2.10;;;;;;;;;;4954588;28;20881;-72
2023/09/14 14:19:49;;;;;;;55.23;1.90;;;;;;;;;;4955059;28;20529;-72
2023/09/14 14:22:16;;;;;;;54.47;1.70;;;;;;;;;;4954664;28;20950;-72
2023/09/14 14:24:44;;;;;;;54.80;1.90;;;;;;;;;;4954752;28;20464;-72
2023/09/14 14:27:14;;;;;;;55.00;2.03;;;;;;;;;;4954541;28;20874;-73
2023/09/14 14:29:41;;;;;;;55.30;1.93;;;;;;;;;;4946674;28;20872;-73
2023/09/14 14:32:08;;;;;;;54.80;1.93;;;;;;;;;;4946786;28;20453;-73
2023/09/14 14:34:36;;;;;;;54.73;1.80;;;;;;;;;;4943997;28;20446;-73